Main page
METAR-TAF:

METAR-TAF

Airports :

Ain Beida Airport

Ouargla, Algeria

latitude: 31-55N, longitude: 005-24E, elevation: 141 m

Current weather observation

The report was made 51 minutes ago, at 17:00 UTC
Wind 8 kt from the Northeast
Temperature 19°C
Humidity 32%
Pressure 1018 hPa
Visibility 10 km or more
no clouds below 1500 m and no cumulonimbus

METAR: DAUU 061700Z 05008KT CAVOK 19/02 Q1018

Time: 18:51 (17:51 UTC)

Forecast

The report was made 51 minutes ago, at 17:00 UTC
Forecast valid from 06 at 18 UTC to 07 at 03 UTC
Wind 8 kt from the East/Northeast
Visibility 10 km or more
no clouds below 1500 m and no cumulonimbus

TAF: DAUU 061700Z 0618/0703 06008KT CAVOK

Weather observations and forecasts of more than 4000 airports (METAR and TAF reports).

The available stations are represented by yellow and red dots on the map.

Hover mouse over dot to see the name of the station.

Then click to see weather observations and forecasts.

To change the map : click on the green buttons with a black cross to zoom in, on the green button with a dash to zoom out, or on the green arrows for adjacent maps.


METAR-TAF: